Time;durP1;ratioP1;P1;durP2;ratioP2;P2;SDS_P1;SDS_P2;PMS_P1;PMS_P2;Temp;Humidity;BMP_temperature;BMP_pressure;BME280_temperature;BME280_humidity;BME280_pressure;Samples;Min_cycle;Max_cycle;Signal;HPM_P1;HPM_P2
2024/01/09 00:02:15;;;;;;;15.70;7.65;;;0.60;64.20;;;;;;2277441;55;20980;-66
2024/01/09 00:04:42;;;;;;;15.10;6.80;;;0.60;64.10;;;;;;2509267;54;20956;-65
2024/01/09 00:07:08;;;;;;;12.90;6.00;;;0.60;64.20;;;;;;2277791;56;21381;-66
2024/01/09 00:09:34;;;;;;;13.38;6.85;;;0.50;64.00;;;;;;2510012;55;20932;-66
2024/01/09 00:12:01;;;;;;;15.10;6.55;;;0.50;64.10;;;;;;2277794;56;21421;-65
2024/01/09 00:14:27;;;;;;;14.55;7.07;;;0.50;64.20;;;;;;2509407;54;21024;-66
2024/01/09 00:16:53;;;;;;;16.35;7.12;;;0.50;64.20;;;;;;2277438;56;20964;-66
2024/01/09 00:19:20;;;;;;;16.87;7.62;;;0.40;64.20;;;;;;2281070;56;21040;-65
2024/01/09 00:21:47;;;;;;;15.98;7.30;;;0.40;64.20;;;;;;2297048;55;20966;-66
2024/01/09 00:24:14;;;;;;;14.48;7.32;;;0.40;64.30;;;;;;2277854;55;20964;-66
2024/01/09 00:26:41;;;;;;;13.40;7.47;;;0.40;64.30;;;;;;2284157;55;21018;-66
2024/01/09 00:29:07;;;;;;;15.15;8.00;;;0.40;64.30;;;;;;2277190;55;21620;-67
2024/01/09 00:31:34;;;;;;;15.60;7.25;;;0.40;64.30;;;;;;2277751;56;21067;-66
2024/01/09 00:34:00;;;;;;;14.52;7.18;;;0.40;64.40;;;;;;2283334;54;20958;-66
2024/01/09 00:36:27;;;;;;;14.73;7.45;;;0.40;64.40;;;;;;2277109;55;20968;-66
2024/01/09 00:38:53;;;;;;;13.65;6.80;;;0.40;64.40;;;;;;2277147;56;21462;-66
2024/01/09 00:41:22;;;;;;;14.80;6.57;;;0.30;64.30;;;;;;2277617;55;21020;-66
2024/01/09 00:43:48;;;;;;;15.57;6.57;;;0.30;64.30;;;;;;2277379;56;21797;-66
2024/01/09 00:46:15;;;;;;;14.82;7.22;;;0.30;64.30;;;;;;2277653;55;20960;-66
2024/01/09 00:48:41;;;;;;;16.17;6.80;;;0.30;64.30;;;;;;2277658;56;20952;-66
2024/01/09 00:51:09;;;;;;;13.18;6.18;;;0.30;64.40;;;;;;2277327;56;20989;-66
2024/01/09 00:53:35;;;;;;;15.38;7.50;;;0.30;64.30;;;;;;2278511;55;20968;-65
2024/01/09 00:56:01;;;;;;;14.95;7.20;;;0.30;64.30;;;;;;2277782;55;21016;-66
2024/01/09 00:58:28;;;;;;;14.32;7.18;;;0.30;64.30;;;;;;2277090;56;20968;-66
2024/01/09 01:00:54;;;;;;;13.27;7.18;;;0.20;64.10;;;;;;2277013;56;20975;-66
2024/01/09 01:03:21;;;;;;;15.50;7.53;;;0.20;64.10;;;;;;2277519;56;20981;-66
2024/01/09 01:05:47;;;;;;;16.35;7.55;;;0.20;64.10;;;;;;2509932;54;21024;-66
2024/01/09 01:08:13;;;;;;;13.23;6.68;;;0.20;64.10;;;;;;2277466;56;20987;-66
2024/01/09 01:10:41;;;;;;;15.13;7.47;;;0.10;64.00;;;;;;2509826;55;20905;-66
2024/01/09 01:13:07;;;;;;;17.77;7.57;;;0.10;64.00;;;;;;2509252;54;21087;-65
2024/01/09 01:15:34;;;;;;;15.48;7.00;;;0.10;64.10;;;;;;2277614;55;21096;-66
2024/01/09 01:18:00;;;;;;;15.68;7.47;;;0.10;64.00;;;;;;2509761;54;21356;-66
2024/01/09 01:20:26;;;;;;;14.95;7.70;;;0.00;63.80;;;;;;2277498;55;20957;-66
2024/01/09 01:22:55;;;;;;;16.65;7.95;;;0.00;63.90;;;;;;2509829;54;20948;-65
2024/01/09 01:25:22;;;;;;;13.60;7.00;;;0.00;63.80;;;;;;2509201;54;21002;-66
2024/01/09 01:27:48;;;;;;;16.35;7.93;;;-0.10;63.70;;;;;;2279721;54;21008;-66
2024/01/09 01:30:14;;;;;;;15.52;7.70;;;-0.10;63.70;;;;;;2276049;55;20972;-65
2024/01/09 01:32:41;;;;;;;13.02;6.95;;;-0.10;63.80;;;;;;2277482;56;20952;-66
2024/01/09 01:35:07;;;;;;;13.30;6.95;;;-0.10;63.90;;;;;;2274469;56;20961;-65
2024/01/09 01:37:42;;;;;;;14.65;7.15;;;-0.30;63.80;;;;;;2282372;54;20970;-65
2024/01/09 01:40:09;;;;;;;16.10;7.37;;;-0.20;63.90;;;;;;2276399;55;20952;-66
2024/01/09 01:42:35;;;;;;;14.57;6.70;;;-0.20;64.00;;;;;;2277542;55;21044;-65
2024/01/09 01:45:02;;;;;;;15.30;6.53;;;-0.20;64.00;;;;;;2277563;56;21084;-65
2024/01/09 01:47:28;;;;;;;14.25;7.20;;;-0.30;63.90;;;;;;2510891;54;21021;-65
2024/01/09 01:49:54;;;;;;;16.60;6.80;;;-0.30;63.90;;;;;;2278860;55;20943;-65
2024/01/09 01:52:20;;;;;;;16.20;6.97;;;-0.30;63.90;;;;;;2509635;55;21387;-65
2024/01/09 01:54:47;;;;;;;15.52;7.30;;;-0.30;64.00;;;;;;2277676;55;21521;-65
2024/01/09 01:57:13;;;;;;;15.45;7.25;;;-0.30;64.00;;;;;;2508787;54;21137;-65
2024/01/09 01:59:42;;;;;;;16.75;7.30;;;-0.30;64.00;;;;;;2277686;55;21048;-65
2024/01/09 02:02:09;;;;;;;14.95;7.35;;;-0.40;63.80;;;;;;2277429;56;21024;-65
2024/01/09 02:04:35;;;;;;;14.18;7.32;;;-0.40;63.80;;;;;;2277422;55;20944;-65
2024/01/09 02:07:01;;;;;;;17.92;7.85;;;-0.40;63.70;;;;;;2277366;55;20968;-66
2024/01/09 02:09:27;;;;;;;14.98;7.78;;;-0.40;63.80;;;;;;2277084;56;21375;-65
2024/01/09 02:11:54;;;;;;;15.80;7.50;;;-0.50;63.60;;;;;;2509469;54;20936;-65
2024/01/09 02:14:20;;;;;;;16.10;7.45;;;-0.50;63.60;;;;;;2509703;54;20960;-65
2024/01/09 02:16:46;;;;;;;16.02;7.62;;;-0.50;63.60;;;;;;2277935;56;21393;-66
2024/01/09 02:19:13;;;;;;;14.55;7.07;;;-0.60;63.60;;;;;;2277058;56;20976;-65
2024/01/09 02:21:39;;;;;;;15.60;7.47;;;-0.60;63.70;;;;;;2277482;55;20961;-65
2024/01/09 02:24:05;;;;;;;15.43;7.20;;;-0.60;63.70;;;;;;2277671;56;21048;-64
2024/01/09 02:26:33;;;;;;;14.60;7.45;;;-0.60;63.80;;;;;;2277518;56;21323;-65
2024/01/09 02:29:05;;;;;;;15.77;7.53;;;-0.60;63.90;;;;;;2509141;54;21531;-65
2024/01/09 02:31:32;;;;;;;14.55;7.00;;;-0.70;63.80;;;;;;2509933;54;20980;-65
2024/01/09 02:34:00;;;;;;;15.88;6.55;;;-0.70;63.80;;;;;;2277228;55;20960;-66
2024/01/09 02:36:26;;;;;;;17.15;7.95;;;-0.70;63.80;;;;;;2509216;54;21904;-65
2024/01/09 02:38:53;;;;;;;14.10;7.53;;;-0.70;63.80;;;;;;2277537;56;21016;-65
2024/01/09 02:41:19;;;;;;;15.23;7.82;;;-0.80;63.70;;;;;;2277069;56;20952;-65
2024/01/09 02:43:46;;;;;;;17.27;8.07;;;-0.80;63.70;;;;;;2510275;54;21003;-65
2024/01/09 02:46:12;;;;;;;17.25;8.18;;;-0.80;63.80;;;;;;2277714;56;21201;-65
2024/01/09 02:48:38;;;;;;;14.80;7.05;;;-0.80;63.80;;;;;;2281772;56;21782;-65
2024/01/09 02:51:04;;;;;;;16.17;8.30;;;-0.80;63.80;;;;;;2280099;55;20952;-65
2024/01/09 02:53:31;;;;;;;18.12;7.47;;;-0.90;63.80;;;;;;2276835;56;21004;-65
2024/01/09 02:55:57;;;;;;;16.42;8.02;;;-0.90;63.80;;;;;;2277092;55;20944;-65
2024/01/09 02:58:26;;;;;;;14.98;7.18;;;-0.90;63.80;;;;;;2277335;55;21024;-65
2024/01/09 03:00:53;;;;;;;14.55;7.53;;;-0.90;63.80;;;;;;2277901;55;21068;-66
2024/01/09 03:03:19;;;;;;;14.63;7.10;;;-0.90;63.90;;;;;;2510772;54;20998;-65
2024/01/09 03:05:45;;;;;;;16.85;7.37;;;-0.90;63.90;;;;;;2279621;55;21389;-65
2024/01/09 03:08:12;;;;;;;16.98;7.68;;;-1.00;63.70;;;;;;2277267;56;21810;-65
2024/01/09 03:10:38;;;;;;;13.25;6.90;;;-1.00;63.80;;;;;;2509729;54;21000;-66
2024/01/09 03:13:04;;;;;;;16.40;7.47;;;-1.00;63.80;;;;;;2283713;54;21431;-65
2024/01/09 03:15:31;;;;;;;16.27;7.35;;;-1.00;63.90;;;;;;2277746;56;20959;-65
2024/01/09 03:18:00;;;;;;;14.93;7.68;;;-1.00;64.00;;;;;;2510354;54;21517;-66
2024/01/09 03:20:26;;;;;;;16.80;7.82;;;-1.00;64.00;;;;;;2262593;56;20996;-65
2024/01/09 03:22:53;;;;;;;17.50;7.62;;;-1.00;64.10;;;;;;2277804;56;20948;-65
2024/01/09 03:25:19;;;;;;;13.55;7.20;;;-1.10;64.00;;;;;;2508350;55;20988;-65
2024/01/09 03:27:45;;;;;;;17.75;8.88;;;-1.10;64.00;;;;;;2509493;54;20991;-65
2024/01/09 03:30:12;;;;;;;16.25;8.10;;;-1.10;64.00;;;;;;2277337;56;20979;-65
2024/01/09 03:32:38;;;;;;;15.77;8.55;;;-1.10;64.10;;;;;;2277376;56;21952;-65
2024/01/09 03:35:04;;;;;;;16.42;7.82;;;-1.10;64.10;;;;;;2509564;54;21631;-65
2024/01/09 03:37:31;;;;;;;13.70;7.45;;;-1.10;64.10;;;;;;2510030;54;21072;-65
2024/01/09 03:39:57;;;;;;;17.25;8.40;;;-1.10;64.10;;;;;;2281856;56;21014;-65
2024/01/09 03:42:26;;;;;;;15.48;7.85;;;-1.10;64.20;;;;;;2278472;55;20996;-66
2024/01/09 03:44:53;;;;;;;19.10;8.38;;;-1.10;64.20;;;;;;2509836;54;20968;-65
2024/01/09 03:47:21;;;;;;;15.52;7.45;;;-1.10;64.20;;;;;;2277374;56;21180;-65
2024/01/09 03:49:47;;;;;;;18.67;7.87;;;-1.10;64.30;;;;;;2509064;55;21021;-65
2024/01/09 03:52:15;;;;;;;15.65;7.90;;;-1.10;64.30;;;;;;2277252;55;20972;-65
2024/01/09 03:54:41;;;;;;;16.85;8.20;;;-1.10;64.30;;;;;;2277878;56;20960;-65
2024/01/09 03:57:08;;;;;;;14.23;7.93;;;-1.10;64.20;;;;;;2277550;55;21008;-65
2024/01/09 03:59:34;;;;;;;16.80;8.38;;;-1.10;64.20;;;;;;2277092;56;21067;-65
2024/01/09 04:02:01;;;;;;;17.17;8.13;;;-1.10;64.20;;;;;;2277693;56;20956;-65
2024/01/09 04:04:28;;;;;;;16.73;7.95;;;-1.10;64.20;;;;;;2277505;55;20992;-64
2024/01/09 04:06:54;;;;;;;16.02;7.62;;;-1.10;64.20;;;;;;2277722;56;21060;-65
2024/01/09 04:09:27;;;;;;;16.67;7.90;;;-1.10;64.20;;;;;;2277464;56;21492;-65
2024/01/09 04:11:53;;;;;;;15.57;7.75;;;-1.20;64.10;;;;;;2510030;54;20976;-65
2024/01/09 04:14:19;;;;;;;15.38;7.45;;;-1.10;64.10;;;;;;2282622;55;20949;-65
2024/01/09 04:16:49;;;;;;;16.98;7.40;;;-1.20;64.00;;;;;;2278687;54;20957;-66
2024/01/09 04:19:17;;;;;;;19.10;8.95;;;-1.20;64.00;;;;;;2277198;56;21110;-65
2024/01/09 04:21:43;;;;;;;16.90;8.07;;;-1.20;64.00;;;;;;2277616;55;21026;-65
2024/01/09 04:24:10;;;;;;;16.70;7.68;;;-1.20;64.70;;;;;;2508850;55;21265;-65
2024/01/09 04:26:36;;;;;;;14.65;7.47;;;-1.20;64.00;;;;;;2277248;56;20963;-65
2024/01/09 04:29:02;;;;;;;19.90;9.02;;;-1.20;64.00;;;;;;2277093;56;20931;-64
2024/01/09 04:31:28;;;;;;;15.43;7.82;;;-1.20;64.10;;;;;;2276816;55;20932;-65
2024/01/09 04:33:55;;;;;;;18.60;9.00;;;-1.20;64.10;;;;;;2277087;56;21059;-65
2024/01/09 04:36:21;;;;;;;17.73;8.57;;;-1.20;64.20;;;;;;2276842;56;21036;-65
2024/01/09 04:38:48;;;;;;;18.33;9.10;;;-1.20;64.30;;;;;;2509729;54;20968;-65
2024/01/09 04:41:17;;;;;;;19.05;8.95;;;-1.20;64.30;;;;;;2282346;54;20965;-65
2024/01/09 04:43:45;;;;;;;17.17;7.75;;;-1.10;64.40;;;;;;2278571;55;21000;-65
2024/01/09 04:46:11;;;;;;;19.25;7.95;;;-1.30;64.20;;;;;;2277093;55;20995;-65
2024/01/09 04:48:41;;;;;;;16.62;8.20;;;-1.20;64.40;;;;;;2277082;55;21000;-65
2024/01/09 04:51:07;;;;;;;18.90;9.20;;;-1.20;64.30;;;;;;2277605;55;20948;-65
2024/01/09 04:53:34;;;;;;;18.75;9.02;;;-1.30;64.20;;;;;;2277138;55;21059;-65
2024/01/09 04:56:01;;;;;;;18.60;9.43;;;-1.30;64.20;;;;;;2277025;55;21060;-65
2024/01/09 04:58:28;;;;;;;16.70;8.90;;;-1.30;64.20;;;;;;2509456;54;21003;-65
2024/01/09 05:00:57;;;;;;;16.50;8.02;;;-1.30;64.20;;;;;;2509755;55;21135;-65
2024/01/09 05:03:23;;;;;;;16.55;8.00;;;-1.30;64.20;;;;;;2277254;56;20988;-65
2024/01/09 05:05:50;;;;;;;20.45;8.88;;;-1.30;64.20;;;;;;2509271;54;21012;-64
2024/01/09 05:08:19;;;;;;;20.00;8.95;;;-1.30;64.20;;;;;;2276938;55;20984;-65
2024/01/09 05:10:45;;;;;;;20.52;9.18;;;-1.30;64.20;;;;;;2276900;55;20976;-64
2024/01/09 05:13:11;;;;;;;20.17;9.00;;;-1.30;64.30;;;;;;2276985;56;20957;-65
2024/01/09 05:15:38;;;;;;;20.52;9.18;;;-1.30;64.30;;;;;;2277645;55;21059;-64
2024/01/09 05:18:04;;;;;;;17.37;8.35;;;-1.30;64.20;;;;;;2277450;56;21019;-65
2024/01/09 05:20:31;;;;;;;19.02;9.05;;;-1.30;64.30;;;;;;2276918;56;20982;-65
2024/01/09 05:22:58;;;;;;;17.02;8.52;;;-1.30;64.30;;;;;;2509588;55;20989;-65
2024/01/09 05:25:24;;;;;;;17.45;8.02;;;-1.30;64.40;;;;;;2276380;55;21783;-65
2024/01/09 05:27:51;;;;;;;19.17;8.80;;;-1.30;64.40;;;;;;2277078;55;21008;-64
2024/01/09 05:30:18;;;;;;;19.95;8.15;;;-1.30;64.40;;;;;;2275971;56;20964;-65
2024/01/09 05:32:44;;;;;;;18.58;9.30;;;-1.30;64.30;;;;;;2276543;55;21073;-65
2024/01/09 05:35:11;;;;;;;21.12;8.77;;;-1.30;64.20;;;;;;2507233;54;21017;-64
2024/01/09 05:37:37;;;;;;;18.83;8.23;;;-1.30;64.30;;;;;;2507992;54;21506;-65
2024/01/09 05:40:06;;;;;;;16.80;7.80;;;-1.30;64.20;;;;;;2509368;54;20976;-64
2024/01/09 05:42:32;;;;;;;17.58;8.45;;;-1.20;64.30;;;;;;2508942;54;20948;-65
2024/01/09 05:44:58;;;;;;;18.15;8.32;;;-1.30;64.20;;;;;;2277504;56;21032;-65
2024/01/09 05:47:24;;;;;;;18.67;8.30;;;-1.30;64.20;;;;;;2277222;56;21452;-65
2024/01/09 05:49:51;;;;;;;19.40;8.85;;;-1.20;64.30;;;;;;2509961;54;21394;-65
2024/01/09 05:52:17;;;;;;;18.62;8.63;;;-1.20;64.30;;;;;;2278170;55;21027;-65
2024/01/09 05:54:46;;;;;;;15.75;8.20;;;-1.20;64.30;;;;;;2277728;55;20941;-65
2024/01/09 05:57:14;;;;;;;16.55;8.30;;;-1.20;64.30;;;;;;2277695;56;21035;-64
2024/01/09 05:59:42;;;;;;;19.75;9.15;;;-1.20;64.30;;;;;;2278782;56;20972;-65
2024/01/09 06:02:09;;;;;;;18.15;8.60;;;-1.20;64.30;;;;;;2283799;54;21938;-64
2024/01/09 06:04:35;;;;;;;18.15;8.88;;;-1.20;64.30;;;;;;2277821;54;21817;-65
2024/01/09 06:07:03;;;;;;;19.60;9.50;;;-1.20;64.30;;;;;;2509989;55;21772;-65
2024/01/09 06:09:29;;;;;;;17.10;7.95;;;-1.20;64.30;;;;;;2283300;54;20973;-65
2024/01/09 06:11:56;;;;;;;17.65;8.15;;;-1.20;64.30;;;;;;2277967;55;21774;-65
2024/01/09 06:14:22;;;;;;;17.92;8.07;;;-1.20;64.30;;;;;;2277773;55;21478;-65
2024/01/09 06:16:49;;;;;;;16.62;7.85;;;-1.20;64.40;;;;;;2277502;55;20957;-65
2024/01/09 06:19:15;;;;;;;18.80;9.57;;;-1.20;64.40;;;;;;2277204;56;20960;-65
2024/01/09 06:21:42;;;;;;;17.73;8.88;;;-1.20;64.40;;;;;;2509708;54;21056;-64
2024/01/09 06:24:08;;;;;;;18.20;8.63;;;-1.20;64.40;;;;;;2278395;56;20988;-64
2024/01/09 06:26:35;;;;;;;20.62;9.80;;;-1.20;64.50;;;;;;2509750;54;21449;-64
2024/01/09 06:29:01;;;;;;;18.50;8.57;;;-1.20;64.60;;;;;;2277223;56;20972;-65
2024/01/09 06:31:27;;;;;;;16.52;7.90;;;-1.20;64.60;;;;;;2276858;55;21803;-65
2024/01/09 06:33:54;;;;;;;17.35;8.07;;;-1.10;64.70;;;;;;2277800;55;21236;-65
2024/01/09 06:36:20;;;;;;;20.80;9.52;;;-1.10;64.70;;;;;;2508552;54;21465;-66
2024/01/09 06:38:49;;;;;;;17.02;8.85;;;-1.10;64.70;;;;;;2511084;55;21020;-65
2024/01/09 06:41:15;;;;;;;20.92;9.85;;;-1.10;64.70;;;;;;2509396;54;21575;-65
2024/01/09 06:43:41;;;;;;;17.05;9.07;;;-1.10;64.70;;;;;;2509410;54;21433;-65
2024/01/09 06:46:08;;;;;;;20.58;9.85;;;-1.00;64.80;;;;;;2282753;55;21089;-65
2024/01/09 06:48:34;;;;;;;20.08;9.15;;;-1.00;64.70;;;;;;2276704;55;21016;-65
2024/01/09 06:51:03;;;;;;;19.92;9.95;;;-1.00;65.40;;;;;;2277407;55;21028;-65
2024/01/09 06:53:30;;;;;;;20.10;9.20;;;-1.00;64.80;;;;;;2277385;55;21060;-65
2024/01/09 06:55:56;;;;;;;19.95;9.63;;;-1.00;64.70;;;;;;2277040;55;20964;-65
2024/01/09 06:58:23;;;;;;;18.00;8.75;;;-0.90;64.80;;;;;;2276671;56;21461;-65
2024/01/09 07:00:49;;;;;;;17.48;9.48;;;-0.90;64.80;;;;;;2277365;56;21703;-65
2024/01/09 07:03:16;;;;;;;21.50;10.90;;;-0.90;64.70;;;;;;2277267;55;20956;-65
2024/01/09 07:05:42;;;;;;;20.65;9.85;;;-0.90;64.70;;;;;;2276648;55;20997;-65
2024/01/09 07:08:08;;;;;;;23.83;10.02;;;-0.90;64.60;;;;;;2509753;55;21012;-65
2024/01/09 07:10:35;;;;;;;16.27;8.43;;;-0.90;64.70;;;;;;2277272;56;20937;-64
2024/01/09 07:13:03;;;;;;;19.40;9.23;;;-0.90;64.70;;;;;;2514197;53;20974;-65
2024/01/09 07:15:29;;;;;;;19.90;8.80;;;-0.90;64.50;;;;;;2277656;55;21476;-65
2024/01/09 07:17:55;;;;;;;18.33;8.77;;;-0.90;64.60;;;;;;2277258;55;21011;-65
2024/01/09 07:20:22;;;;;;;20.65;8.82;;;-0.80;64.70;;;;;;2276982;55;20932;-65
2024/01/09 07:22:49;;;;;;;18.85;9.20;;;-0.80;64.70;;;;;;2509032;54;21945;-65
2024/01/09 07:25:16;;;;;;;18.30;8.73;;;-0.80;64.70;;;;;;2275996;55;21232;-64
2024/01/09 07:27:42;;;;;;;17.87;8.55;;;-0.80;65.40;;;;;;2277917;56;21485;-64
2024/01/09 07:30:10;;;;;;;18.48;9.07;;;-0.80;64.60;;;;;;2509378;54;20972;-65
2024/01/09 07:32:38;;;;;;;19.98;9.15;;;-0.80;64.60;;;;;;2276870;56;21276;-65
2024/01/09 07:35:05;;;;;;;17.85;8.55;;;-0.80;64.60;;;;;;2277021;56;20980;-66
2024/01/09 07:37:34;;;;;;;17.10;9.10;;;-0.70;64.70;;;;;;2276657;56;20948;-65
2024/01/09 07:40:01;;;;;;;17.83;8.88;;;-0.70;65.40;;;;;;2282398;54;21046;-65
2024/01/09 07:42:27;;;;;;;18.73;9.32;;;-0.70;64.50;;;;;;2279206;55;21055;-65
2024/01/09 07:44:54;;;;;;;18.23;8.50;;;-0.70;64.40;;;;;;2283291;55;21559;-65
2024/01/09 07:47:21;;;;;;;21.67;9.70;;;-0.80;64.30;;;;;;2276565;55;21008;-65
2024/01/09 07:49:47;;;;;;;17.55;8.82;;;-0.80;64.30;;;;;;2277057;55;20994;-65
2024/01/09 07:52:15;;;;;;;17.50;8.82;;;-0.80;64.20;;;;;;2283337;55;20985;-65
2024/01/09 07:54:41;;;;;;;19.98;9.07;;;-0.80;64.20;;;;;;2510136;53;20945;-65
2024/01/09 07:57:09;;;;;;;17.60;8.90;;;-0.80;64.40;;;;;;2276160;56;21048;-65
2024/01/09 07:59:44;;;;;;;19.40;9.45;;;-0.80;64.40;;;;;;2277331;56;20980;-65
2024/01/09 08:02:10;;;;;;;19.77;10.00;;;-0.80;64.40;;;;;;2277146;55;21028;-65
2024/01/09 08:04:39;;;;;;;19.45;9.68;;;-0.80;64.50;;;;;;2277348;56;21031;-65
2024/01/09 08:07:05;;;;;;;19.83;8.93;;;-0.80;64.40;;;;;;2509725;54;21732;-65
2024/01/09 08:09:32;;;;;;;20.75;9.75;;;-0.80;64.40;;;;;;2511424;54;21017;-64
2024/01/09 08:11:58;;;;;;;20.10;9.48;;;-0.80;64.40;;;;;;2278935;55;21004;-65
2024/01/09 08:14:25;;;;;;;21.17;9.60;;;-0.80;64.50;;;;;;2283730;54;20990;-65
2024/01/09 08:16:51;;;;;;;16.65;8.90;;;-0.80;64.50;;;;;;2277601;54;20988;-65
2024/01/09 08:19:19;;;;;;;21.37;8.98;;;-0.80;64.50;;;;;;2277097;56;20983;-65
2024/01/09 08:21:45;;;;;;;20.73;9.32;;;-0.80;64.50;;;;;;2281604;55;21000;-65
2024/01/09 08:24:18;;;;;;;20.37;8.48;;;-0.80;64.50;;;;;;2279691;55;20977;-65
2024/01/09 08:27:02;;;;;;;20.73;9.02;;;-0.80;64.50;;;;;;2276928;56;20941;-65
2024/01/09 08:29:29;;;;;;;20.25;9.63;;;-0.80;64.30;;;;;;2509364;54;20964;-65
2024/01/09 08:31:56;;;;;;;19.50;8.77;;;-0.80;64.50;;;;;;2509852;54;20966;-65
2024/01/09 08:34:23;;;;;;;22.55;9.57;;;-0.80;64.50;;;;;;2277298;55;20980;-65
2024/01/09 08:36:49;;;;;;;20.65;9.10;;;-0.70;64.70;;;;;;2509567;54;21004;-65
2024/01/09 08:39:16;;;;;;;19.27;9.02;;;-0.70;64.70;;;;;;2277160;56;21404;-66
2024/01/09 08:41:42;;;;;;;18.87;8.80;;;-0.70;64.70;;;;;;2281035;55;21449;-65
2024/01/09 08:44:10;;;;;;;21.85;10.23;;;-0.70;64.80;;;;;;2282949;55;21504;-64
2024/01/09 08:46:37;;;;;;;22.92;10.25;;;-0.70;64.70;;;;;;2283269;55;21296;-65
2024/01/09 08:49:07;;;;;;;22.42;9.80;;;-0.70;64.70;;;;;;2280196;54;21660;-65
2024/01/09 08:51:36;;;;;;;19.75;9.35;;;-0.60;64.80;;;;;;2509292;54;20960;-65
2024/01/09 08:54:02;;;;;;;23.87;9.60;;;-0.60;64.90;;;;;;2509944;54;20956;-65
2024/01/09 08:56:29;;;;;;;21.10;10.13;;;-0.60;65.00;;;;;;2277754;55;21950;-65
2024/01/09 08:58:55;;;;;;;25.20;9.70;;;-0.60;65.00;;;;;;2277690;56;21316;-65
2024/01/09 09:01:22;;;;;;;20.55;9.45;;;-0.50;65.20;;;;;;2277198;56;20968;-65
2024/01/09 09:03:48;;;;;;;19.77;9.23;;;-0.50;65.20;;;;;;2277570;56;21007;-65
2024/01/09 09:06:16;;;;;;;18.65;9.30;;;-0.50;65.30;;;;;;2276444;55;20952;-65
2024/01/09 09:08:42;;;;;;;20.48;9.52;;;-0.40;65.40;;;;;;2509852;54;20988;-65
2024/01/09 09:11:09;;;;;;;19.80;9.25;;;-0.40;65.30;;;;;;2510251;54;21077;-66
2024/01/09 09:13:35;;;;;;;22.90;9.77;;;-0.40;65.20;;;;;;2279440;55;20972;-66
2024/01/09 09:16:02;;;;;;;19.23;9.15;;;-0.40;65.10;;;;;;2277626;56;21842;-66
2024/01/09 09:18:30;;;;;;;21.30;8.75;;;-0.30;65.10;;;;;;2277270;55;20944;-65
2024/01/09 09:20:56;;;;;;;22.90;9.85;;;-0.30;65.00;;;;;;2277119;56;21886;-65
2024/01/09 09:23:23;;;;;;;20.27;9.75;;;-0.30;65.00;;;;;;2276515;55;20988;-65
2024/01/09 09:25:49;;;;;;;20.10;9.38;;;-0.30;65.10;;;;;;2509569;55;21414;-65
2024/01/09 09:28:16;;;;;;;18.77;9.30;;;-0.30;65.00;;;;;;2509278;54;21034;-65
2024/01/09 09:30:43;;;;;;;18.95;8.75;;;-0.30;64.90;;;;;;2276994;55;21032;-65
2024/01/09 09:33:09;;;;;;;20.12;9.18;;;-0.20;65.00;;;;;;2276615;56;20956;-65
2024/01/09 09:35:36;;;;;;;23.08;10.68;;;-0.20;65.00;;;;;;2277661;55;21402;-65
2024/01/09 09:38:04;;;;;;;20.37;9.13;;;-0.20;65.00;;;;;;2277250;55;22028;-65
2024/01/09 09:40:30;;;;;;;21.60;9.23;;;-0.20;65.00;;;;;;2276147;56;21730;-65
2024/01/09 09:42:59;;;;;;;18.55;9.13;;;-0.20;65.00;;;;;;2277430;56;21528;-66
2024/01/09 09:45:26;;;;;;;18.65;8.80;;;-0.20;65.10;;;;;;2509321;54;21402;-65
2024/01/09 09:47:53;;;;;;;19.70;9.20;;;-0.10;65.30;;;;;;2509357;55;20940;-65
2024/01/09 09:50:21;;;;;;;21.77;9.13;;;-0.10;65.40;;;;;;2509048;55;20996;-65
2024/01/09 09:52:47;;;;;;;17.98;8.35;;;-0.10;65.40;;;;;;2277509;55;21819;-65
2024/01/09 09:55:17;;;;;;;23.50;10.57;;;0.00;65.40;;;;;;2509086;55;20988;-65
2024/01/09 09:57:44;;;;;;;21.10;9.45;;;0.00;65.50;;;;;;2277531;55;20985;-66
2024/01/09 10:00:12;;;;;;;17.50;8.48;;;0.00;65.50;;;;;;2276947;55;21296;-66
2024/01/09 10:02:43;;;;;;;20.30;9.82;;;0.10;65.70;;;;;;2277453;56;20976;-65
2024/01/09 10:05:13;;;;;;;20.23;10.45;;;0.10;65.70;;;;;;2281251;55;21916;-66
2024/01/09 10:07:40;;;;;;;21.62;12.00;;;0.20;65.70;;;;;;2511411;54;20996;-65
2024/01/09 10:10:08;;;;;;;17.95;9.27;;;0.20;65.80;;;;;;2282695;55;20981;-66
2024/01/09 10:12:35;;;;;;;22.77;10.73;;;0.30;65.80;;;;;;2516764;53;21410;-66
2024/01/09 10:15:11;;;;;;;20.80;9.48;;;0.30;65.80;;;;;;2508752;54;20968;-65
2024/01/09 10:17:38;;;;;;;17.85;8.73;;;0.40;65.80;;;;;;2283285;55;20944;-66
2024/01/09 10:20:08;;;;;;;21.37;9.48;;;0.40;65.90;;;;;;2276813;55;21524;-66
2024/01/09 10:22:37;;;;;;;20.73;8.88;;;0.50;65.90;;;;;;2277501;55;20992;-65
2024/01/09 10:25:04;;;;;;;20.23;8.75;;;0.50;65.90;;;;;;2277763;56;21504;-65
2024/01/09 10:27:32;;;;;;;19.67;9.52;;;0.50;65.90;;;;;;2276687;55;20972;-65
2024/01/09 10:29:58;;;;;;;20.95;9.50;;;0.50;65.80;;;;;;2277686;56;20995;-65
2024/01/09 10:32:26;;;;;;;20.58;9.68;;;0.60;65.80;;;;;;2508523;54;21015;-65
2024/01/09 10:34:54;;;;;;;20.48;9.95;;;0.70;65.80;;;;;;2284085;55;21069;-65
2024/01/09 10:37:20;;;;;;;20.88;9.48;;;0.70;65.70;;;;;;2277479;55;20940;-64
2024/01/09 10:39:50;;;;;;;21.58;10.30;;;0.70;66.30;;;;;;2276510;55;21791;-65
2024/01/09 10:42:16;;;;;;;15.98;8.25;;;0.70;66.20;;;;;;2282025;55;20970;-65
2024/01/09 10:44:49;;;;;;;19.50;9.90;;;0.80;65.60;;;;;;2511826;53;21030;-64
2024/01/09 10:47:16;;;;;;;22.40;10.68;;;0.80;65.60;;;;;;2262535;56;21123;-65
2024/01/09 10:49:43;;;;;;;20.85;9.82;;;0.80;65.50;;;;;;2277492;55;21488;-66
2024/01/09 10:52:16;;;;;;;18.70;9.20;;;0.80;65.60;;;;;;2277201;55;21877;-65
2024/01/09 10:54:43;;;;;;;21.35;9.68;;;0.90;65.60;;;;;;2277332;55;20988;-65
2024/01/09 10:57:14;;;;;;;18.02;9.15;;;0.90;65.60;;;;;;2277232;55;20996;-65
2024/01/09 10:59:41;;;;;;;18.95;9.13;;;0.90;65.60;;;;;;2278032;56;20952;-66
2024/01/09 11:02:20;;;;;;;19.83;8.88;;;1.00;65.70;;;;;;2508328;54;21393;-65
2024/01/09 11:04:46;;;;;;;19.45;9.48;;;1.00;65.50;;;;;;2280655;56;21035;-65
2024/01/09 11:07:14;;;;;;;19.12;9.57;;;1.10;65.70;;;;;;2277619;55;21711;-65
2024/01/09 11:09:44;;;;;;;19.23;9.43;;;1.10;65.80;;;;;;2277458;56;21109;-66
2024/01/09 11:12:30;;;;;;;18.12;8.80;;;1.10;65.70;;;;;;2277070;56;21047;-64
2024/01/09 11:14:59;;;;;;;19.48;8.68;;;1.20;65.70;;;;;;2509072;54;20916;-65
2024/01/09 11:17:26;;;;;;;20.23;8.75;;;1.20;65.70;;;;;;2276931;55;21209;-65
2024/01/09 11:19:52;;;;;;;20.27;8.73;;;1.20;65.70;;;;;;2509703;54;20968;-65
2024/01/09 11:22:20;;;;;;;19.35;9.23;;;1.20;65.60;;;;;;2277035;56;21008;-66
2024/01/09 11:24:53;;;;;;;20.40;9.23;;;1.30;65.60;;;;;;2277725;56;21935;-66
2024/01/09 11:27:19;;;;;;;20.62;8.55;;;1.30;65.50;;;;;;2277053;55;20972;-66
2024/01/09 11:29:50;;;;;;;20.33;9.13;;;1.30;65.60;;;;;;2510082;54;21124;-66
2024/01/09 11:32:18;;;;;;;20.05;8.70;;;1.40;65.60;;;;;;2509832;54;20996;-66
2024/01/09 11:34:45;;;;;;;19.70;9.10;;;1.30;65.40;;;;;;2283560;55;20962;-65
2024/01/09 11:37:13;;;;;;;23.48;9.48;;;1.40;65.60;;;;;;2277682;55;21894;-66
2024/01/09 11:39:40;;;;;;;19.83;8.90;;;1.40;65.60;;;;;;2509611;54;20968;-65
2024/01/09 11:42:07;;;;;;;16.75;8.88;;;1.50;65.70;;;;;;2276834;55;21279;-67
2024/01/09 11:44:37;;;;;;;20.35;9.60;;;1.30;65.50;;;;;;2510750;53;21018;-65
2024/01/09 11:47:03;;;;;;;22.33;9.85;;;1.50;65.70;;;;;;2292174;54;20957;-65
2024/01/09 11:49:29;;;;;;;19.08;8.77;;;1.50;65.70;;;;;;2276745;56;21052;-66
2024/01/09 11:51:56;;;;;;;20.23;9.57;;;1.60;65.80;;;;;;2281438;55;21030;-67
2024/01/09 11:54:23;;;;;;;22.77;10.20;;;1.60;65.70;;;;;;2279081;54;20948;-65
2024/01/09 11:56:51;;;;;;;21.52;10.05;;;1.60;65.60;;;;;;2277994;55;20960;-66
2024/01/09 11:59:18;;;;;;;18.65;9.73;;;1.60;65.60;;;;;;2276360;55;20941;-65
2024/01/09 12:01:47;;;;;;;20.35;9.95;;;1.70;65.80;;;;;;2277765;56;21067;-67
2024/01/09 12:04:15;;;;;;;20.58;9.52;;;1.70;65.70;;;;;;2277037;56;21996;-65
2024/01/09 12:06:43;;;;;;;21.60;10.10;;;1.70;65.70;;;;;;2277151;55;20940;-64
2024/01/09 12:09:10;;;;;;;24.87;10.63;;;1.80;65.90;;;;;;2277623;55;21024;-66
2024/01/09 12:11:37;;;;;;;19.62;8.77;;;1.80;65.80;;;;;;2284357;54;21065;-65
2024/01/09 12:14:04;;;;;;;18.52;9.35;;;1.90;65.90;;;;;;2508820;55;20965;-66
2024/01/09 12:16:31;;;;;;;19.62;10.20;;;1.90;65.90;;;;;;2509378;55;20952;-65
2024/01/09 12:18:58;;;;;;;22.83;10.30;;;1.90;65.90;;;;;;2510314;55;21077;-65
2024/01/09 12:21:26;;;;;;;20.65;9.93;;;1.90;65.90;;;;;;2277453;56;20960;-66
2024/01/09 12:23:55;;;;;;;19.92;10.02;;;2.00;66.00;;;;;;2277128;56;20924;-66
2024/01/09 12:26:28;;;;;;;18.42;8.82;;;2.00;65.90;;;;;;2282386;54;20958;-65
2024/01/09 12:28:56;;;;;;;19.45;10.18;;;2.10;66.10;;;;;;2281997;55;20952;-65
2024/01/09 12:31:25;;;;;;;22.00;10.43;;;2.10;66.10;;;;;;2277561;55;21336;-66
2024/01/09 12:33:53;;;;;;;22.17;9.85;;;2.10;65.90;;;;;;2509530;54;21007;-67
2024/01/09 12:36:20;;;;;;;24.17;10.05;;;2.20;65.90;;;;;;2276898;55;20962;-66
2024/01/09 12:38:46;;;;;;;21.15;10.30;;;2.20;65.70;;;;;;2510049;54;21012;-67